Time;durP1;ratioP1;P1;durP2;ratioP2;P2;SDS_P1;SDS_P2;PMS_P1;PMS_P2;Temp;Humidity;BMP_temperature;BMP_pressure;BME280_temperature;BME280_humidity;BME280_pressure;Samples;Min_cycle;Max_cycle;Signal;HPM_P1;HPM_P2
2022/04/04 10:58:47;;;;;;;4.33;3.35;;;;;;;3.35;44.32;97786.88;1833666;77;20860;-63
2022/04/04 11:01:16;;;;;;;4.58;3.30;;;;;;;3.48;44.67;97795.77;1827542;78;21133;-69
2022/04/04 11:03:54;;;;;;;3.47;3.15;;;;;;;3.62;44.45;97793.00;1791249;80;20915;-70
2022/04/04 11:09:32;;;;;;;5.45;3.67;;;;;;;3.79;43.45;97796.31;1791306;79;20935;-65
2022/04/04 11:12:12;;;;;;;5.70;4.05;;;;;;;3.82;42.68;97793.17;1791237;79;21374;-67
2022/04/04 11:14:46;;;;;;;6.20;4.12;;;;;;;3.80;42.30;97795.28;1791264;79;21346;-67
2022/04/04 11:17:20;;;;;;;7.92;4.47;;;;;;;3.74;42.88;97802.92;1791444;80;20954;-62
2022/04/04 11:20:21;;;;;;;6.37;4.30;;;;;;;3.69;43.54;97789.63;1791780;80;20915;-65
2022/04/04 11:22:52;;;;;;;9.00;4.60;;;;;;;3.68;45.37;97789.86;1784273;80;21468;-66
2022/04/04 11:25:21;;;;;;;7.92;4.75;;;;;;;3.67;43.29;97797.03;1773145;80;20966;-64
2022/04/04 11:27:48;;;;;;;6.33;4.75;;;;;;;3.64;44.29;97784.27;1786817;80;21372;-66
2022/04/04 11:30:18;;;;;;;7.45;4.40;;;;;;;3.82;45.42;97783.91;1785639;80;20869;-67
2022/04/04 11:32:47;;;;;;;6.20;4.83;;;;;;;4.27;47.22;97772.05;1785897;80;20883;-64
2022/04/04 11:35:20;;;;;;;6.70;4.70;;;;;;;4.66;44.24;97772.05;1785662;80;20889;-63
2022/04/04 11:37:52;;;;;;;7.15;5.12;;;;;;;4.78;42.66;97779.28;1786345;80;20889;-61
2022/04/04 11:40:25;;;;;;;7.90;5.28;;;;;;;4.63;40.83;97789.80;1757146;80;21141;-62
2022/04/04 11:42:51;;;;;;;9.13;4.90;;;;;;;4.36;41.66;97759.95;1788522;80;20954;-61
2022/04/04 11:45:20;;;;;;;6.37;4.78;;;;;;;4.18;42.66;97765.63;1784599;80;20884;-63
2022/04/04 11:48:03;;;;;;;6.40;4.85;;;;;;;4.04;43.98;97759.45;1754677;81;20935;-70
2022/04/04 11:50:31;;;;;;;8.00;5.75;;;;;;;3.96;42.77;97761.23;1777469;79;21387;-64
2022/04/04 11:53:02;;;;;;;7.50;5.60;;;;;;;3.77;43.80;97764.53;1751220;78;21705;-60
2022/04/04 11:55:32;;;;;;;7.12;5.17;;;;;;;3.68;44.17;97765.50;1753589;81;20920;-70
2022/04/04 11:58:01;;;;;;;9.18;4.83;;;;;;;3.68;44.22;97782.72;1771995;81;20936;-69
2022/04/04 12:00:33;;;;;;;7.50;5.05;;;;;;;3.71;45.60;97765.00;1791564;79;20911;-68
2022/04/04 12:03:11;;;;;;;8.85;5.53;;;;;;;3.85;45.27;97765.38;1791850;80;20977;-63
2022/04/04 12:05:44;;;;;;;9.35;4.92;;;;;;;4.18;43.01;97749.73;1791268;80;21046;-63
2022/04/04 12:08:12;;;;;;;5.92;4.50;;;;;;;4.44;42.63;97739.03;1791028;80;20867;-64
2022/04/04 12:10:40;;;;;;;6.35;4.78;;;;;;;4.42;42.41;97743.00;1787376;78;20922;-60
2022/04/04 12:13:12;;;;;;;5.53;4.35;;;;;;;4.31;42.65;97738.70;1790026;80;21366;-63
2022/04/04 12:15:44;;;;;;;7.20;5.05;;;;;;;4.31;43.93;97734.72;1776406;79;21016;-61
2022/04/04 12:18:23;;;;;;;7.30;5.35;;;;;;;4.53;41.71;97753.92;1804712;79;21429;-65
2022/04/04 12:20:53;;;;;;;7.62;4.70;;;;;;;4.58;43.22;97726.11;1805071;79;20871;-65
2022/04/04 12:26:11;;;;;;;6.25;4.78;;;;;;;5.13;40.05;97726.86;1801404;79;21443;-64
2022/04/04 12:28:50;;;;;;;5.00;3.87;;;;;;;5.45;41.53;97728.25;1789994;80;20958;-59
2022/04/04 12:31:20;;;;;;;8.78;4.40;;;;;;;5.74;40.52;97706.49;1789956;80;21118;-62
2022/04/04 12:34:01;;;;;;;6.47;4.70;;;;;;;5.91;39.92;97712.38;1799835;79;21005;-61
2022/04/04 12:36:31;;;;;;;7.37;4.62;;;;;;;6.03;41.61;97695.62;1803847;79;21489;-65
2022/04/04 12:38:58;;;;;;;6.30;4.58;;;;;;;6.36;40.77;97700.33;1791275;79;20958;-60
2022/04/04 12:41:25;;;;;;;5.65;4.17;;;;;;;6.66;40.87;97697.59;1790112;80;20985;-60
2022/04/04 12:44:02;;;;;;;5.60;4.17;;;;;;;7.03;39.95;97688.37;1790454;80;21120;-63
2022/04/04 12:46:33;;;;;;;5.12;3.85;;;;;;;7.36;39.69;97683.12;1790992;80;20942;-61
2022/04/04 12:49:20;;;;;;;5.62;3.80;;;;;;;7.41;37.23;97684.95;1801975;79;20961;-68
2022/04/04 12:51:58;;;;;;;6.15;4.05;;;;;;;7.14;38.63;97684.56;1804546;79;20883;-67
2022/04/04 12:54:30;;;;;;;4.75;3.80;;;;;;;6.87;38.34;97680.47;1803937;79;20882;-61
2022/04/04 12:56:59;;;;;;;10.03;4.25;;;;;;;6.75;38.04;97668.54;1788270;79;21138;-60
2022/04/04 12:59:26;;;;;;;5.20;3.70;;;;;;;6.48;36.68;97682.20;1777213;80;20887;-66
2022/04/04 13:02:05;;;;;;;5.15;3.80;;;;;;;6.13;38.07;97682.29;1777639;80;20869;-69
2022/04/04 13:04:32;;;;;;;7.62;3.90;;;;;;;6.04;37.06;97679.91;1793124;80;20923;-64
2022/04/04 13:07:00;;;;;;;4.45;3.62;;;;;;;5.88;39.43;97662.40;1793178;80;21049;-63
2022/04/04 13:09:29;;;;;;;6.30;3.70;;;;;;;5.94;38.69;97661.31;1793261;80;21121;-67
2022/04/04 13:11:58;;;;;;;18.57;10.68;;;;;;;6.16;38.48;97653.84;1793206;80;20835;-70
2022/04/04 13:14:25;;;;;;;5.33;4.28;;;;;;;6.32;38.49;97650.07;1790524;80;20931;-65
2022/04/04 13:17:03;;;;;;;16.25;11.20;;;;;;;6.43;37.26;97651.62;1777226;80;21427;-60
2022/04/04 13:19:31;;;;;;;142.37;78.72;;;;;;;6.39;39.19;97650.58;1767674;79;21486;-63
2022/04/04 13:21:59;;;;;;;7.30;4.60;;;;;;;6.32;38.92;97636.77;1759938;80;21116;-61
2022/04/04 13:24:26;;;;;;;6.58;3.60;;;;;;;6.19;38.08;97640.02;1746225;82;20867;-62
2022/04/04 13:26:52;;;;;;;16.48;11.03;;;;;;;6.10;38.03;97642.41;1746305;82;20951;-65
2022/04/04 13:29:20;;;;;;;10.05;6.58;;;;;;;5.89;38.42;97630.75;1746132;82;20974;-60
2022/04/04 13:31:47;;;;;;;62.03;40.85;;;;;;;5.70;39.28;97640.33;1745383;82;21120;-63
2022/04/04 13:34:23;;;;;;;11.65;5.60;;;;;;;5.52;40.38;97634.48;1745517;82;21144;-64
2022/04/04 13:36:50;;;;;;;43.13;35.48;;;;;;;5.40;39.85;97628.64;1745882;82;21090;-66
